createdAt,value
2022-08-25T00:11:02.944Z,4.57
2022-08-25T00:26:06.527Z,3.95
2022-08-25T00:41:11.682Z,4.45
2022-08-25T00:56:15.266Z,4.88
2022-08-25T01:11:20.846Z,6.03
2022-08-25T01:26:30.663Z,5.55
2022-08-25T01:42:02.167Z,6.07
2022-08-25T01:57:04.306Z,6.03
2022-08-25T02:12:09.405Z,6.20
2022-08-25T02:27:12.325Z,6.25
2022-08-25T02:42:14.964Z,6.28
2022-08-25T02:57:18.345Z,6.18
2022-08-25T03:12:20.807Z,6.88
2022-08-25T03:27:22.808Z,6.43
2022-08-25T03:42:26.805Z,6.55
2022-08-25T03:57:28.844Z,7.35
2022-08-25T04:12:30.845Z,6.85
2022-08-25T04:27:33.877Z,6.88
2022-08-25T04:42:36.045Z,7.00
2022-08-25T04:57:38.086Z,6.80
2022-08-25T05:12:40.133Z,7.22
2022-08-25T05:27:43.366Z,7.22
2022-08-25T05:42:45.385Z,7.82
2022-08-25T05:57:48.445Z,6.88
2022-08-25T06:12:50.680Z,6.53
2022-08-25T06:27:53.726Z,7.38
2022-08-25T06:42:55.767Z,6.60
2022-08-25T06:57:57.787Z,6.93
2022-08-25T07:13:00.390Z,7.70
2022-08-25T07:28:03.950Z,7.05
2022-08-25T07:43:10.727Z,6.93
2022-08-25T07:58:12.826Z,7.60
2022-08-25T08:13:17.969Z,7.13
2022-08-25T08:28:20.607Z,7.75
2022-08-25T08:43:24.970Z,7.53
2022-08-25T08:58:45.868Z,7.53
2022-08-25T09:13:57.646Z,8.07
2022-08-25T09:29:10.895Z,7.25
2022-08-25T09:44:22.241Z,6.35
2022-08-25T09:59:34.888Z,6.25
2022-08-25T10:14:44.426Z,6.28
2022-08-25T10:30:12.872Z,5.68
2022-08-25T10:45:44.324Z,5.80
2022-08-25T11:01:05.166Z,6.47
2022-08-25T11:16:19.719Z,6.00
2022-08-25T11:31:25.479Z,5.78
2022-08-25T11:46:43.505Z,5.50
2022-08-25T12:01:48.585Z,5.28
2022-08-25T12:16:56.789Z,4.93
2022-08-25T12:32:09.316Z,4.70
2022-08-25T12:47:19.891Z,3.35
2022-08-25T13:02:52.044Z,3.00
2022-08-25T13:17:54.561Z,2.63
2022-08-25T13:32:57.527Z,2.55
2022-08-25T13:47:59.845Z,3.30
2022-08-25T14:03:08.872Z,2.70
2022-08-25T14:18:26.943Z,3.45
2022-08-25T14:33:34.529Z,2.70
2022-08-25T14:48:43.011Z,3.28
2022-08-25T15:03:48.445Z,2.83
2022-08-25T15:33:54.146Z,2.80
2022-08-25T15:48:58.450Z,3.28
2022-08-25T16:04:00.473Z,2.60
2022-08-25T16:19:02.646Z,2.70
2022-08-25T16:34:05.687Z,3.13
2022-08-25T16:49:07.866Z,2.92
2022-08-25T17:04:11.226Z,2.80
2022-08-25T17:19:16.503Z,3.10
2022-08-25T17:34:23.013Z,3.30
2022-08-25T17:49:25.825Z,3.80
2022-08-25T18:04:29.697Z,4.95
2022-08-25T18:19:32.285Z,4.75
2022-08-25T18:34:36.486Z,4.05
2022-08-25T18:49:38.704Z,3.63
2022-08-25T19:04:41.504Z,3.70
2022-08-25T19:19:44.247Z,4.60
2022-08-25T19:34:47.694Z,4.60
2022-08-25T20:05:00.768Z,5.30
2022-08-25T20:20:05.986Z,6.10
2022-08-25T20:35:13.076Z,5.78
2022-08-25T20:50:16.348Z,5.88
2022-08-25T21:05:20.153Z,5.93
2022-08-25T21:20:26.307Z,5.32
2022-08-25T21:35:28.334Z,5.68
2022-08-25T21:50:31.887Z,6.03
2022-08-25T22:05:37.479Z,5.45
2022-08-25T22:20:41.450Z,5.50
2022-08-25T22:35:43.684Z,5.55
2022-08-25T22:50:46.093Z,6.13
2022-08-25T23:05:48.125Z,5.85
2022-08-25T23:21:09.085Z,5.65
2022-08-25T23:36:15.565Z,5.75
2022-08-25T23:51:31.086Z,6.00
